Time;durP1;ratioP1;P1;durP2;ratioP2;P2;SDS_P1;SDS_P2;PMS_P1;PMS_P2;Temp;Humidity;BMP_temperature;BMP_pressure;BME280_temperature;BME280_humidity;BME280_pressure;Samples;Min_cycle;Max_cycle;Signal;HPM_P1;HPM_P2
2022/03/23 00:01:47;;;;;;;177.60;72.93;;;;;;;22.13;100.00;98026.19;5027617;28;20082;-66
2022/03/23 00:04:36;;;;;;;154.02;72.65;;;;;;;22.31;100.00;98022.91;5028461;28;20473;-66
2022/03/23 00:07:20;;;;;;;155.25;71.68;;;;;;;22.27;100.00;98030.22;5011518;28;20049;-66
2022/03/23 00:10:08;;;;;;;161.70;73.53;;;;;;;22.08;100.00;98038.06;5032867;28;20260;-66
2022/03/23 00:12:58;;;;;;;155.75;73.82;;;;;;;22.13;100.00;98043.72;5003824;28;20053;-66
2022/03/23 00:15:39;;;;;;;173.15;76.70;;;;;;;21.97;100.00;98046.03;5027017;28;20156;-66
2022/03/23 00:18:28;;;;;;;158.38;77.22;;;;;;;21.79;100.00;98039.72;5015781;28;20053;-66
2022/03/23 00:21:10;;;;;;;163.45;77.38;;;;;;;21.97;100.00;98043.41;5030144;28;20120;-66
2022/03/23 00:24:06;;;;;;;190.55;83.38;;;;;;;21.82;100.00;98042.06;5036985;28;20045;-66
2022/03/23 00:26:42;;;;;;;177.50;83.55;;;;;;;21.65;100.00;98044.34;5026216;28;20049;-66
2022/03/23 00:29:31;;;;;;;192.30;86.00;;;;;;;21.72;100.00;98045.47;5025844;28;20099;-66
2022/03/23 00:32:14;;;;;;;193.48;87.93;;;;;;;21.64;100.00;98044.47;5025614;28;20052;-65
2022/03/23 00:35:02;;;;;;;186.15;89.63;;;;;;;21.59;100.00;98051.91;5010811;28;20069;-64
2022/03/23 00:37:50;;;;;;;194.75;88.68;;;;;;;21.54;100.00;98048.88;5026981;28;20056;-65
2022/03/23 00:40:46;;;;;;;202.50;91.35;;;;;;;21.64;100.00;98057.59;5009037;28;20412;-65
2022/03/23 00:43:22;;;;;;;190.88;92.68;;;;;;;21.46;100.00;98051.28;5025869;28;20064;-65
2022/03/23 00:46:11;;;;;;;200.20;93.72;;;;;;;21.46;100.00;98062.63;5041098;28;20155;-65
2022/03/23 00:49:01;;;;;;;193.43;95.45;;;;;;;21.42;100.00;98063.81;5033820;28;20156;-65
2022/03/23 00:51:53;;;;;;;198.73;97.85;;;;;;;21.50;100.00;98061.38;5010206;28;20049;-68
2022/03/23 00:54:44;;;;;;;212.27;98.47;;;;;;;21.27;100.00;98080.81;5024726;28;20401;-65
2022/03/23 00:57:26;;;;;;;230.82;100.65;;;;;;;21.13;100.00;98076.69;5006974;28;20068;-65
2022/03/23 01:00:20;;;;;;;214.10;97.43;;;;;;;21.06;100.00;98074.72;5024559;28;20691;-65
2022/03/23 01:03:14;;;;;;;224.93;103.05;;;;;;;21.04;100.00;98081.88;5028834;28;20076;-65
2022/03/23 01:05:51;;;;;;;200.38;99.35;;;;;;;21.00;100.00;98079.47;5021603;28;20045;-65
2022/03/23 01:08:40;;;;;;;223.63;101.63;;;;;;;20.91;100.00;98087.28;5028034;28;20099;-66
2022/03/23 01:11:29;;;;;;;214.65;101.22;;;;;;;20.96;100.00;98085.94;5022460;28;20041;-66
2022/03/23 01:14:11;;;;;;;223.88;103.50;;;;;;;20.97;100.00;98090.22;5025048;28;20762;-67
2022/03/23 01:17:07;;;;;;;228.52;104.28;;;;;;;21.09;100.00;98098.03;5001392;28;20758;-66
2022/03/23 01:20:03;;;;;;;215.85;102.10;;;;;;;21.21;100.00;98094.44;5022793;28;20139;-66
2022/03/23 01:22:40;;;;;;;236.20;108.97;;;;;;;21.24;100.00;98100.25;5028916;28;20148;-67
2022/03/23 01:25:35;;;;;;;222.93;106.82;;;;;;;21.28;100.00;98087.72;5027060;28;20128;-65
2022/03/23 01:28:13;;;;;;;220.63;109.43;;;;;;;21.39;100.00;98096.34;5035276;28;20049;-65
2022/03/23 01:31:08;;;;;;;251.48;113.13;;;;;;;21.43;100.00;98096.94;5024514;28;20049;-65
2022/03/23 01:33:43;;;;;;;240.70;115.20;;;;;;;21.49;100.00;98099.03;5024118;28;20060;-66
2022/03/23 01:36:33;;;;;;;258.30;121.57;;;;;;;21.52;100.00;98108.44;5019971;28;20053;-66
2022/03/23 01:39:15;;;;;;;231.13;116.30;;;;;;;21.59;100.00;98105.19;5009161;28;20069;-65
2022/03/23 01:42:04;;;;;;;264.55;119.47;;;;;;;21.61;100.00;98102.44;5024978;28;20053;-65
2022/03/23 01:44:45;;;;;;;279.52;125.13;;;;;;;21.70;100.00;98099.03;5006258;28;20359;-65
2022/03/23 01:47:39;;;;;;;246.95;118.88;;;;;;;21.73;100.00;98120.56;5006792;28;20041;-65
2022/03/23 01:50:15;;;;;;;253.32;119.68;;;;;;;21.88;100.00;98126.31;5024629;28;20037;-65
2022/03/23 01:53:10;;;;;;;273.60;128.32;;;;;;;21.77;100.00;98148.22;5010341;28;20049;-65
2022/03/23 01:55:46;;;;;;;253.52;121.95;;;;;;;21.85;100.00;98157.22;5005474;28;20053;-65
2022/03/23 01:58:43;;;;;;;245.32;116.30;;;;;;;22.12;100.00;98144.41;5006453;28;20060;-66
2022/03/23 02:01:19;;;;;;;250.55;117.53;;;;;;;22.33;100.00;98147.00;5023933;28;20119;-65
2022/03/23 02:04:09;;;;;;;248.85;118.75;;;;;;;22.32;100.00;98163.69;5006001;28;20060;-65
2022/03/23 02:06:56;;;;;;;243.75;113.00;;;;;;;22.55;100.00;98169.56;4996776;28;20049;-65
2022/03/23 02:09:51;;;;;;;228.55;113.65;;;;;;;22.74;100.00;98156.53;5017813;28;20104;-62
2022/03/23 02:12:47;;;;;;;230.18;112.50;;;;;;;22.74;100.00;98164.41;4987094;28;20540;-64
2022/03/23 02:15:42;;;;;;;237.88;112.80;;;;;;;23.05;100.00;98165.16;5004066;28;20046;-65
2022/03/23 02:18:35;;;;;;;249.30;110.90;;;;;;;23.31;100.00;98181.22;5011086;28;20057;-65
2022/03/23 02:21:23;;;;;;;209.48;108.68;;;;;;;23.38;100.00;98187.59;4986637;28;20056;-65
2022/03/23 02:24:06;;;;;;;216.45;108.35;;;;;;;23.72;100.00;98180.94;4990279;28;20060;-65
2022/03/23 02:26:53;;;;;;;226.18;106.32;;;;;;;23.69;100.00;98183.03;5003678;28;20050;-65
2022/03/23 02:29:35;;;;;;;214.43;105.90;;;;;;;23.71;100.00;98186.34;4995990;28;20060;-64
2022/03/23 02:32:25;;;;;;;220.57;107.53;;;;;;;24.01;100.00;98191.44;5004774;28;20045;-64
2022/03/23 02:35:08;;;;;;;219.32;105.68;;;;;;;23.81;100.00;98179.25;5005381;28;20155;-65
2022/03/23 02:37:56;;;;;;;217.02;106.05;;;;;;;24.19;100.00;98184.44;4996027;28;20050;-64
2022/03/23 02:40:52;;;;;;;218.90;106.90;;;;;;;24.35;100.00;98186.47;5005491;28;20390;-65
2022/03/23 02:43:28;;;;;;;252.52;108.50;;;;;;;24.06;100.00;98186.56;5004044;28;20065;-65
2022/03/23 02:46:19;;;;;;;232.68;115.82;;;;;;;24.48;100.00;98194.06;5005892;28;20399;-65
2022/03/23 02:49:09;;;;;;;226.07;114.60;;;;;;;24.57;100.00;98193.19;4998171;28;20149;-64
2022/03/23 02:52:06;;;;;;;231.85;116.88;;;;;;;24.53;100.00;98203.19;5004547;28;20069;-65
2022/03/23 03:04:14;;;;;;;250.15;124.57;;;;;;;25.07;100.00;98228.72;4990667;28;20076;-65
2022/03/23 03:07:03;;;;;;;239.48;123.55;;;;;;;25.07;99.31;98234.00;5008075;28;20045;-65
2022/03/23 03:09:58;;;;;;;241.93;121.85;;;;;;;25.15;96.62;98235.88;5004960;28;20046;-65
2022/03/23 03:12:34;;;;;;;228.70;120.55;;;;;;;25.30;100.00;98229.13;4999185;28;20634;-65
2022/03/23 03:15:29;;;;;;;234.20;118.25;;;;;;;25.25;94.53;98226.13;5010808;28;20461;-64
2022/03/23 03:18:05;;;;;;;228.13;117.75;;;;;;;25.25;90.56;98236.66;5017883;28;20080;-65
2022/03/23 03:20:53;;;;;;;240.57;117.82;;;;;;;25.40;87.65;98232.53;5024665;28;20042;-65
2022/03/23 03:23:48;;;;;;;213.43;109.43;;;;;;;25.45;84.34;98248.75;5023802;28;20147;-65
2022/03/23 03:26:31;;;;;;;220.82;109.55;;;;;;;25.55;84.93;98244.22;5024532;28;20563;-65
2022/03/23 03:29:20;;;;;;;202.38;109.05;;;;;;;25.79;85.16;98245.44;5041638;28;20107;-66
2022/03/23 03:32:03;;;;;;;214.63;110.35;;;;;;;25.86;84.94;98249.16;5007095;28;20191;-65
2022/03/23 03:34:51;;;;;;;213.90;110.07;;;;;;;25.90;81.81;98253.13;5019512;28;20082;-66
2022/03/23 03:37:34;;;;;;;225.57;107.75;;;;;;;26.07;81.08;98247.00;5027921;28;20041;-65
2022/03/23 03:40:22;;;;;;;190.10;98.95;;;;;;;26.16;79.11;98242.59;5031128;28;20055;-66
2022/03/23 03:43:16;;;;;;;219.90;100.68;;;;;;;26.16;75.66;98253.16;5029719;28;20038;-65
2022/03/23 03:45:53;;;;;;;204.18;99.45;;;;;;;26.45;75.98;98258.16;5043679;28;20057;-66
2022/03/23 03:48:41;;;;;;;200.70;99.97;;;;;;;26.54;74.86;98262.50;5042516;28;20477;-66
2022/03/23 03:51:23;;;;;;;194.50;95.88;;;;;;;26.65;73.63;98271.00;5042706;28;20127;-65
2022/03/23 03:54:11;;;;;;;192.38;96.43;;;;;;;26.83;70.71;98272.72;5032108;28;20057;-65
2022/03/23 03:56:59;;;;;;;184.18;91.85;;;;;;;27.02;70.58;98275.97;5009975;28;20057;-66
2022/03/23 03:59:41;;;;;;;198.25;93.47;;;;;;;27.22;69.01;98286.31;5023060;28;20064;-65
2022/03/23 04:02:31;;;;;;;197.85;91.85;;;;;;;27.27;69.67;98281.34;5022202;28;20053;-66
2022/03/23 04:05:13;;;;;;;172.90;88.28;;;;;;;27.52;66.39;98287.53;5015717;28;20041;-65
2022/03/23 04:08:02;;;;;;;183.40;89.03;;;;;;;27.76;68.00;98288.44;5024475;28;20049;-65
2022/03/23 04:10:51;;;;;;;180.75;86.43;;;;;;;27.92;64.33;98289.44;5028893;28;20060;-66
2022/03/23 04:13:32;;;;;;;183.55;83.53;;;;;;;28.06;64.89;98288.75;5021165;28;20037;-66
2022/03/23 04:16:27;;;;;;;172.07;81.13;;;;;;;28.46;65.31;98280.81;5030999;28;20053;-66
2022/03/23 04:19:16;;;;;;;166.05;80.20;;;;;;;28.56;60.24;98280.63;5010896;28;20056;-66
2022/03/23 04:22:05;;;;;;;165.32;76.18;;;;;;;28.75;60.37;98282.03;5027513;28;20052;-66
2022/03/23 04:24:48;;;;;;;137.00;72.45;;;;;;;29.09;60.98;98276.47;5018666;28;20052;-66
2022/03/23 04:27:35;;;;;;;159.18;71.80;;;;;;;29.31;58.42;98276.53;5008767;28;20099;-66
2022/03/23 04:30:19;;;;;;;128.35;61.88;;;;;;;29.51;54.95;98290.22;5007594;28;20046;-68
2022/03/23 04:33:07;;;;;;;120.57;55.15;;;;;;;29.79;54.80;98279.06;5008315;28;20081;-66
2022/03/23 04:35:49;;;;;;;119.60;51.20;;;;;;;30.00;54.37;98287.25;5008582;28;20108;-66
2022/03/23 04:38:37;;;;;;;105.05;50.67;;;;;;;30.71;55.41;98273.47;4995272;28;20077;-66
2022/03/23 04:41:26;;;;;;;111.30;46.58;;;;;;;30.71;52.25;98265.47;5026538;28;20061;-66
2022/03/23 04:44:08;;;;;;;85.80;41.47;;;;;;;30.90;49.74;98276.56;5026127;28;20049;-65
2022/03/23 04:46:56;;;;;;;103.57;45.85;;;;;;;31.28;49.15;98266.63;5037857;28;20053;-66
2022/03/23 04:49:38;;;;;;;92.07;47.38;;;;;;;31.85;52.91;98269.28;5025834;28;20042;-66
2022/03/23 04:52:29;;;;;;;101.43;50.53;;;;;;;32.27;53.28;98274.59;5027175;28;20228;-66
2022/03/23 04:55:20;;;;;;;101.40;47.10;;;;;;;32.01;48.11;98269.00;5031415;28;20053;-66
2022/03/23 04:58:01;;;;;;;91.82;46.80;;;;;;;31.84;47.07;98267.66;5022404;28;20408;-67
2022/03/23 05:00:50;;;;;;;86.30;44.38;;;;;;;32.35;47.98;98270.13;5025847;28;20057;-66
2022/03/23 05:03:32;;;;;;;104.00;42.63;;;;;;;32.73;48.17;98270.63;5010013;28;20072;-66
2022/03/23 05:06:21;;;;;;;91.82;38.88;;;;;;;32.05;45.20;98274.78;5015601;28;20044;-66
2022/03/23 05:09:03;;;;;;;74.13;36.20;;;;;;;32.65;49.51;98274.22;5025177;28;20068;-66
2022/03/23 05:11:52;;;;;;;79.53;30.98;;;;;;;32.57;45.40;98277.03;5026186;28;20060;-65
2022/03/23 05:14:35;;;;;;;77.18;34.63;;;;;;;32.57;44.21;98279.72;5007880;28;20049;-68
2022/03/23 05:17:28;;;;;;;81.93;32.58;;;;;;;32.39;44.33;98269.56;5006755;28;20788;-67
2022/03/23 05:20:18;;;;;;;74.32;34.17;;;;;;;32.87;46.10;98273.16;4991493;28;20053;-67
2022/03/23 05:23:07;;;;;;;79.63;34.78;;;;;;;32.94;43.76;98265.19;5008351;28;20054;-66
2022/03/23 05:26:02;;;;;;;80.55;36.65;;;;;;;33.26;45.80;98269.03;5026311;28;20057;-67
2022/03/23 05:28:43;;;;;;;87.40;34.70;;;;;;;33.68;45.87;98263.41;5027185;28;20080;-67
2022/03/23 05:31:31;;;;;;;88.30;36.80;;;;;;;33.61;47.29;98267.88;5011811;28;20076;-66
2022/03/23 05:34:13;;;;;;;78.22;33.40;;;;;;;33.35;47.11;98270.50;5025162;28;20059;-66
2022/03/23 05:37:08;;;;;;;73.65;30.65;;;;;;;33.78;45.50;98269.19;5026898;28;20053;-67
2022/03/23 05:39:45;;;;;;;68.03;31.17;;;;;;;33.86;44.54;98270.84;5026879;28;20073;-67
2022/03/23 05:42:34;;;;;;;83.82;29.83;;;;;;;33.96;43.77;98257.91;5024917;28;20085;-67
2022/03/23 05:45:23;;;;;;;69.03;31.17;;;;;;;33.44;41.49;98256.75;5025663;28;20163;-66
2022/03/23 05:48:05;;;;;;;66.07;31.45;;;;;;;33.48;41.89;98262.53;5026565;28;20160;-67
2022/03/23 05:50:53;;;;;;;62.88;23.60;;;;;;;33.36;41.09;98267.66;5029062;28;20119;-67
2022/03/23 05:53:36;;;;;;;65.50;25.85;;;;;;;33.77;42.91;98267.53;5037446;28;20077;-67
2022/03/23 05:56:25;;;;;;;58.63;24.95;;;;;;;33.70;40.59;98277.38;5030978;28;20506;-67
2022/03/23 05:59:06;;;;;;;52.72;22.55;;;;;;;33.31;36.65;98266.59;5025480;28;20056;-66
2022/03/23 06:01:55;;;;;;;55.33;22.55;;;;;;;33.93;43.13;98270.84;5026044;28;20049;-66
2022/03/23 06:04:37;;;;;;;50.80;21.73;;;;;;;33.92;40.79;98259.34;5026184;28;20049;-65
2022/03/23 06:07:27;;;;;;;48.25;23.92;;;;;;;34.18;44.02;98263.84;5028189;28;20049;-66
2022/03/23 06:10:09;;;;;;;59.80;26.50;;;;;;;33.86;42.16;98262.81;5026523;28;20045;-66
2022/03/23 06:12:59;;;;;;;63.72;23.83;;;;;;;34.04;41.70;98254.19;5041723;28;20837;-67
2022/03/23 06:15:40;;;;;;;49.13;22.15;;;;;;;33.95;42.52;98255.41;5041982;28;20045;-66
2022/03/23 06:18:30;;;;;;;61.63;20.95;;;;;;;34.10;41.77;98256.84;5032787;28;20148;-66
2022/03/23 06:21:11;;;;;;;49.78;21.60;;;;;;;34.33;40.66;98248.44;5027548;28;20137;-67
2022/03/23 06:24:00;;;;;;;68.07;23.80;;;;;;;34.10;38.07;98250.69;5036185;28;20156;-66
2022/03/23 06:26:42;;;;;;;43.78;19.00;;;;;;;33.95;36.35;98255.41;5016784;28;20675;-66
2022/03/23 06:29:32;;;;;;;50.08;21.33;;;;;;;34.23;37.04;98250.72;4993621;28;20107;-66
2022/03/23 06:32:14;;;;;;;61.70;21.98;;;;;;;34.10;38.01;98242.66;5028758;28;20049;-67
2022/03/23 06:35:01;;;;;;;63.65;23.98;;;;;;;33.97;39.80;98234.66;5026377;28;20140;-65
2022/03/23 06:37:50;;;;;;;49.75;21.98;;;;;;;34.22;43.59;98229.50;5021986;28;20057;-65
2022/03/23 06:40:32;;;;;;;60.90;26.17;;;;;;;34.31;45.12;98223.75;5026881;28;20064;-66
2022/03/23 06:43:20;;;;;;;54.20;24.45;;;;;;;34.24;41.85;98222.94;5030948;28;20064;-66
2022/03/23 06:46:02;;;;;;;58.20;24.45;;;;;;;34.10;40.07;98218.59;5027537;28;20084;-67
2022/03/23 06:48:53;;;;;;;63.42;26.98;;;;;;;34.04;40.17;98224.78;5022298;28;20052;-64
2022/03/23 06:51:41;;;;;;;49.53;21.45;;;;;;;34.04;39.31;98224.78;4984927;28;20053;-66
2022/03/23 06:54:29;;;;;;;55.50;23.80;;;;;;;33.65;36.42;98220.22;5017596;28;20365;-64
2022/03/23 06:57:20;;;;;;;62.70;24.70;;;;;;;33.19;37.69;98217.44;5019663;28;20798;-65
2022/03/23 07:00:03;;;;;;;63.30;25.83;;;;;;;33.59;39.23;98205.00;5027557;28;20048;-65
2022/03/23 07:02:53;;;;;;;67.32;28.08;;;;;;;33.30;36.54;98200.81;5026934;28;20633;-64
2022/03/23 07:05:36;;;;;;;63.35;25.88;;;;;;;33.58;37.22;98198.00;5026384;28;20064;-66
2022/03/23 07:11:26;;;;;;;57.22;24.50;;;;;;;33.84;41.11;98181.19;5024075;28;20079;-64
2022/03/23 07:14:14;;;;;;;64.88;27.90;;;;;;;33.73;39.98;98187.97;5003869;28;20816;-64
2022/03/23 07:16:56;;;;;;;65.70;29.55;;;;;;;33.90;41.40;98170.50;5016746;28;20365;-64
2022/03/23 07:19:46;;;;;;;60.05;29.15;;;;;;;33.83;42.84;98163.50;5023751;28;20533;-65
2022/03/23 07:22:40;;;;;;;70.30;29.75;;;;;;;33.56;41.34;98168.00;5027484;28;20100;-65
2022/03/23 07:25:16;;;;;;;55.45;27.77;;;;;;;33.54;37.08;98170.84;5013899;28;20049;-65
2022/03/23 07:28:05;;;;;;;64.63;27.42;;;;;;;33.87;41.84;98154.03;5022360;28;20057;-66
2022/03/23 07:30:48;;;;;;;68.40;26.52;;;;;;;33.91;40.61;98152.59;5019134;28;20481;-65
2022/03/23 07:33:37;;;;;;;69.43;27.05;;;;;;;33.78;40.51;98145.41;5018723;28;20053;-67
2022/03/23 07:36:19;;;;;;;53.75;26.92;;;;;;;33.45;40.26;98145.38;5019187;28;20045;-66
2022/03/23 07:39:16;;;;;;;63.47;26.88;;;;;;;33.46;40.50;98135.50;5017432;28;20118;-65
2022/03/23 07:41:55;;;;;;;55.95;24.80;;;;;;;33.53;39.12;98134.47;5020386;28;20037;-67
2022/03/23 07:44:44;;;;;;;61.78;24.25;;;;;;;33.35;37.48;98134.28;5028044;28;20053;-68
2022/03/23 07:47:26;;;;;;;54.35;22.35;;;;;;;33.70;39.22;98126.88;5031344;28;20052;-68
2022/03/23 07:50:21;;;;;;;64.07;23.73;;;;;;;33.61;39.31;98123.56;5026394;28;20056;-69
2022/03/23 07:52:57;;;;;;;55.45;21.58;;;;;;;33.22;38.47;98115.56;5012837;28;20053;-67
2022/03/23 07:55:51;;;;;;;50.90;20.58;;;;;;;33.30;41.22;98110.00;5023769;28;20045;-66
2022/03/23 07:58:28;;;;;;;53.55;22.42;;;;;;;33.42;43.80;98108.41;5009024;28;20049;-68
2022/03/23 08:01:16;;;;;;;41.53;19.75;;;;;;;33.23;40.05;98103.84;5031595;28;20044;-68
2022/03/23 08:03:58;;;;;;;52.42;20.80;;;;;;;33.28;37.57;98099.56;5010509;28;20069;-67
2022/03/23 08:06:55;;;;;;;46.13;20.00;;;;;;;33.30;36.50;98088.66;5027098;28;20060;-65
2022/03/23 08:09:33;;;;;;;45.72;16.70;;;;;;;33.24;38.11;98073.44;5011653;28;20060;-67
2022/03/23 08:12:23;;;;;;;62.20;20.13;;;;;;;33.38;39.64;98065.22;5020605;28;20041;-67
2022/03/23 08:15:05;;;;;;;54.85;18.25;;;;;;;33.10;36.42;98061.09;5011056;28;20053;-63
2022/03/23 08:17:59;;;;;;;45.80;18.05;;;;;;;32.99;38.28;98057.16;5022562;28;20381;-65
2022/03/23 08:20:49;;;;;;;46.03;18.08;;;;;;;32.74;39.98;98046.25;5022676;28;20045;-64
2022/03/23 08:23:40;;;;;;;56.15;19.25;;;;;;;32.65;40.97;98031.41;5022035;28;20054;-64
2022/03/23 08:26:21;;;;;;;78.07;19.75;;;;;;;32.46;41.26;98022.34;5018043;28;20131;-68
2022/03/23 08:29:10;;;;;;;61.40;20.55;;;;;;;32.25;40.88;98009.97;5023386;28;20068;-68
2022/03/23 08:31:53;;;;;;;60.58;20.35;;;;;;;32.51;40.56;98011.91;5006037;28;20145;-64
2022/03/23 08:34:41;;;;;;;49.65;19.42;;;;;;;32.79;40.75;98014.47;5021836;28;20137;-68
2022/03/23 08:37:28;;;;;;;48.13;20.45;;;;;;;33.12;40.99;98013.66;5023629;28;20797;-70
2022/03/23 08:40:19;;;;;;;63.00;22.65;;;;;;;32.95;38.50;98019.41;5016189;28;20060;-68
2022/03/23 08:43:01;;;;;;;49.75;18.30;;;;;;;33.16;41.15;98006.84;5019549;28;20141;-69
2022/03/23 08:45:50;;;;;;;52.03;21.27;;;;;;;33.21;40.74;97999.06;5023335;28;20053;-67
2022/03/23 08:48:31;;;;;;;56.80;18.77;;;;;;;33.13;40.19;97996.56;5023328;28;20045;-64
2022/03/23 08:51:21;;;;;;;46.38;19.30;;;;;;;33.26;42.77;97992.09;5020538;28;20245;-64
2022/03/23 08:54:04;;;;;;;52.42;19.20;;;;;;;33.08;41.64;97983.88;5020200;28;20053;-69
2022/03/23 08:56:53;;;;;;;50.55;19.13;;;;;;;32.98;42.17;97981.59;5016160;28;20057;-67
2022/03/23 08:59:34;;;;;;;49.40;18.98;;;;;;;33.02;41.94;97972.16;5020474;28;21541;-69
2022/03/23 09:02:23;;;;;;;51.15;17.63;;;;;;;32.95;40.81;97979.34;5020741;28;20037;-67
2022/03/23 09:05:09;;;;;;;53.65;18.15;;;;;;;32.98;42.83;97967.44;5021067;28;20495;-67
2022/03/23 09:08:01;;;;;;;49.20;18.10;;;;;;;32.73;39.45;97964.53;5021461;28;20061;-68
2022/03/23 09:10:43;;;;;;;43.75;17.30;;;;;;;32.92;40.03;97963.75;5021697;28;20045;-68
2022/03/23 09:13:32;;;;;;;44.53;18.42;;;;;;;32.93;42.53;97953.88;5001221;28;20057;-67
2022/03/23 09:16:22;;;;;;;39.97;16.75;;;;;;;32.87;39.78;97955.53;5020042;28;20049;-68
2022/03/23 09:19:20;;;;;;;51.88;16.85;;;;;;;32.50;40.76;97948.06;5020878;28;20123;-68
2022/03/23 09:21:55;;;;;;;50.72;18.60;;;;;;;32.64;40.79;97939.91;5020283;28;20049;-66
2022/03/23 09:24:49;;;;;;;51.75;17.95;;;;;;;32.66;39.63;97937.84;5029875;28;20060;-66
2022/03/23 09:27:30;;;;;;;40.17;17.45;;;;;;;32.61;40.09;97926.13;5027425;28;20038;-67
2022/03/23 09:30:20;;;;;;;49.50;16.65;;;;;;;32.32;41.21;97926.53;5029497;28;20053;-67
2022/03/23 09:33:02;;;;;;;;;;;;;;;32.13;41.77;97918.25;5029016;28;20045;-68
2022/03/23 09:35:51;;;;;;;44.20;17.65;;;;;;;31.94;41.81;97911.00;5034267;28;20368;-67
2022/03/23 09:38:34;;;;;;;49.20;17.63;;;;;;;31.83;42.56;97906.25;5014434;28;20076;-67
2022/03/23 09:41:22;;;;;;;49.40;18.02;;;;;;;31.78;41.97;97900.69;5022048;28;20432;-67
2022/03/23 09:44:05;;;;;;;44.53;17.13;;;;;;;31.73;42.15;97908.47;5021405;28;20068;-69
2022/03/23 09:46:59;;;;;;;48.28;17.30;;;;;;;31.62;43.37;97901.84;5018958;28;20141;-68
2022/03/23 09:49:46;;;;;;;48.78;16.83;;;;;;;31.70;40.50;97900.88;5024565;28;20382;-67
2022/03/23 09:52:37;;;;;;;45.78;16.90;;;;;;;31.74;42.95;97889.63;5020264;28;20046;-67
2022/03/23 09:55:18;;;;;;;40.03;17.42;;;;;;;31.79;41.51;97881.84;5014629;28;20073;-65
2022/03/23 09:58:07;;;;;;;40.10;16.55;;;;;;;31.86;41.98;97879.19;5014367;28;20049;-66
2022/03/23 10:00:55;;;;;;;38.15;17.05;;;;;;;31.96;42.89;97865.50;5021729;28;20077;-66
2022/03/23 10:04:52;;;;;;;46.17;18.20;;;;;;;31.94;43.48;97857.69;5031702;28;20063;-69
2022/03/23 10:08:13;;;;;;;;;;;;;;;31.92;43.33;97859.75;5033149;28;20041;-69
2022/03/23 10:11:20;;;;;;;42.35;17.67;;;;;;;31.94;42.92;97852.38;5046102;28;19925;-69
2022/03/23 10:14:27;;;;;;;57.78;18.05;;;;;;;31.87;43.02;97843.53;5044693;28;20071;-68
2022/03/23 10:17:20;;;;;;;55.50;18.25;;;;;;;31.89;41.36;97841.50;5047037;28;20060;-68
2022/03/23 10:20:14;;;;;;;42.58;15.35;;;;;;;31.86;40.16;97839.22;5048471;28;20044;-67
2022/03/23 10:23:04;;;;;;;51.85;15.45;;;;;;;31.97;40.63;97835.97;5046308;28;20192;-69
2022/03/23 10:25:45;;;;;;;46.63;16.20;;;;;;;31.78;40.78;97831.41;5035143;28;20068;-69
2022/03/23 10:28:40;;;;;;;43.88;14.93;;;;;;;31.74;40.64;97830.19;5026058;28;20626;-68
2022/03/23 10:31:27;;;;;;;47.00;16.88;;;;;;;31.65;42.97;97823.41;5025190;28;20571;-68
2022/03/23 10:34:16;;;;;;;38.22;17.55;;;;;;;31.41;45.52;97817.56;5024961;28;20473;-69
2022/03/23 10:36:58;;;;;;;47.60;18.63;;;;;;;31.45;46.80;97818.00;5028276;28;20546;-71
2022/03/23 10:39:47;;;;;;;52.42;16.95;;;;;;;31.56;44.18;97833.38;5023289;28;20049;-70
2022/03/23 10:42:36;;;;;;;49.60;18.35;;;;;;;31.62;46.40;97826.47;5017459;28;20112;-69
2022/03/23 10:45:31;;;;;;;48.17;19.02;;;;;;;31.56;48.17;97818.22;5021348;28;20057;-69
2022/03/23 10:48:17;;;;;;;50.85;18.67;;;;;;;31.55;49.57;97821.91;5022421;28;20152;-68
2022/03/23 10:51:07;;;;;;;51.65;17.42;;;;;;;31.51;47.94;97818.00;5023422;28;20060;-69
2022/03/23 10:53:48;;;;;;;42.00;18.20;;;;;;;31.37;47.11;97815.50;5024539;28;20441;-68
2022/03/23 10:56:38;;;;;;;45.10;16.55;;;;;;;31.43;45.46;97810.19;5024648;28;20064;-68
2022/03/23 10:59:26;;;;;;;47.88;17.85;;;;;;;31.41;46.92;97804.25;5023850;28;20057;-69
2022/03/23 11:02:14;;;;;;;51.83;17.80;;;;;;;31.31;48.28;97811.78;5025263;28;20056;-68
2022/03/23 11:04:57;;;;;;;44.03;16.83;;;;;;;31.27;46.84;97797.25;5025548;28;20145;-68
2022/03/23 11:07:46;;;;;;;41.55;15.65;;;;;;;31.25;47.88;97809.09;5025792;28;20052;-67
2022/03/23 11:16:43;;;;;;;38.75;13.85;;;;;;;31.07;42.86;97812.28;5005357;28;20058;-69
2022/03/23 11:19:33;;;;;;;39.35;13.20;;;;;;;31.02;43.30;97809.38;5025411;28;20064;-68
2022/03/23 11:22:16;;;;;;;31.08;13.65;;;;;;;31.03;44.36;97809.19;5048643;28;20052;-68
2022/03/23 11:25:03;;;;;;;29.40;10.95;;;;;;;30.94;41.17;97805.03;5043968;28;20049;-68
2022/03/23 11:27:45;;;;;;;34.85;13.10;;;;;;;30.87;43.66;97806.00;5027852;28;20099;-68
2022/03/23 11:30:35;;;;;;;36.83;13.10;;;;;;;30.89;43.77;97803.97;5029713;28;20038;-68
2022/03/23 11:33:21;;;;;;;35.05;14.88;;;;;;;30.91;45.50;97807.25;5028269;28;20142;-69
2022/03/23 11:36:11;;;;;;;37.72;15.85;;;;;;;30.79;45.96;97807.81;5030486;28;20057;-66
2022/03/23 11:38:53;;;;;;;37.45;14.35;;;;;;;30.79;45.87;97804.31;5010378;28;20461;-68
2022/03/23 11:41:43;;;;;;;39.00;14.05;;;;;;;30.77;45.70;97812.50;5014793;28;20084;-68
2022/03/23 11:44:26;;;;;;;44.30;14.10;;;;;;;30.78;45.42;97810.66;5024513;28;20432;-67
2022/03/23 11:47:48;;;;;;;41.35;14.38;;;;;;;30.72;46.03;97817.59;5022507;28;20062;-67
2022/03/23 11:50:51;;;;;;;41.13;15.00;;;;;;;30.66;47.34;97813.03;5016817;28;20403;-67
2022/03/23 11:54:00;;;;;;;35.95;14.60;;;;;;;30.56;47.74;97814.41;5023799;28;20056;-67
2022/03/23 11:56:58;;;;;;;48.67;17.60;;;;;;;30.45;47.41;97813.06;4988560;28;20540;-67
2022/03/23 11:59:49;;;;;;;53.67;15.25;;;;;;;30.39;47.68;97811.19;5015571;28;20046;-68
2022/03/23 12:02:50;;;;;;;43.03;16.05;;;;;;;30.33;49.17;97811.94;5027261;28;20053;-68
2022/03/23 12:05:41;;;;;;;51.58;15.88;;;;;;;30.23;49.54;97808.78;5024951;28;20049;-67
2022/03/23 12:08:50;;;;;;;44.90;16.00;;;;;;;30.23;50.29;97808.78;5037045;28;20040;-68
2022/03/23 12:11:42;;;;;;;52.97;16.10;;;;;;;30.17;50.68;97812.22;5033707;28;20216;-68
2022/03/23 12:14:45;;;;;;;42.67;15.27;;;;;;;30.15;51.57;97801.78;5033336;28;20045;-68
2022/03/23 12:17:40;;;;;;;50.05;16.40;;;;;;;30.07;52.67;97799.25;5036400;28;20049;-66
2022/03/23 12:20:16;;;;;;;37.53;16.20;;;;;;;29.96;51.75;97800.56;5027654;28;20050;-68
2022/03/23 12:23:23;;;;;;;52.83;16.23;;;;;;;29.95;50.17;97806.91;5019220;28;20046;-68
2022/03/23 12:26:50;;;;;;;55.13;16.00;;;;;;;29.90;50.38;97813.78;5027551;28;20053;-67
2022/03/23 12:29:36;;;;;;;46.25;15.32;;;;;;;29.82;48.25;97822.69;4983478;28;20046;-68
2022/03/23 12:32:25;;;;;;;34.80;13.77;;;;;;;29.80;49.63;97821.22;5018868;28;20041;-69
2022/03/23 12:35:08;;;;;;;40.60;14.00;;;;;;;29.65;48.20;97819.44;5016338;28;20057;-69
2022/03/23 12:37:56;;;;;;;42.13;15.48;;;;;;;29.54;49.17;97813.78;5038223;28;20045;-69
2022/03/23 12:40:51;;;;;;;39.20;15.98;;;;;;;29.43;52.11;97819.59;5023361;28;20409;-69
2022/03/23 12:43:49;;;;;;;43.08;14.40;;;;;;;29.31;50.08;97820.03;5026397;28;20049;-68
2022/03/23 12:46:51;;;;;;;44.05;14.98;;;;;;;29.25;51.60;97812.81;5004347;28;20156;-69
2022/03/23 12:59:25;;;;;;;55.78;19.95;;;;;;;28.86;61.55;97806.97;5026662;28;20071;-66
2022/03/23 13:02:26;;;;;;;43.05;17.58;;;;;;;28.81;69.92;97802.25;5025948;28;20053;-68
2022/03/23 13:05:19;;;;;;;51.70;19.83;;;;;;;28.59;63.79;97807.56;5022757;28;20061;-68
2022/03/23 13:08:02;;;;;;;55.13;18.23;;;;;;;28.53;72.17;97809.94;5026237;28;20045;-68
2022/03/23 13:10:59;;;;;;;47.67;17.98;;;;;;;28.47;75.05;97810.66;5025307;28;20172;-67
2022/03/23 13:13:50;;;;;;;34.95;18.00;;;;;;;28.35;75.85;97817.38;5015390;28;20045;-68
2022/03/23 13:16:47;;;;;;;48.17;19.23;;;;;;;28.31;79.54;97818.75;5025023;28;20653;-68